Time;durP1;ratioP1;P1;durP2;ratioP2;P2;SDS_P1;SDS_P2;PMS_P1;PMS_P2;Temp;Humidity;BMP_temperature;BMP_pressure;BME280_temperature;BME280_humidity;BME280_pressure;Samples;Min_cycle;Max_cycle;Signal;HPM_P1;HPM_P2
2021/07/18 00:00:32;;;;;;;;;;;;;;;16.51;74.99;100083.56;4974142;28;19925;-62
2021/07/18 00:02:58;;;;;;;;;;;;;;;16.46;74.92;100081.66;4974602;28;19925;-61
2021/07/18 00:05:23;;;;;;;;;;;;;;;16.44;75.48;100085.69;4974245;28;19925;-61
2021/07/18 00:07:48;;;;;;;;;;;;;;;16.40;75.56;100082.69;4974626;28;19914;-61
2021/07/18 00:10:14;;;;;;;;;;;;;;;16.37;75.42;100094.03;4974203;28;20037;-61
2021/07/18 00:12:39;;;;;;;;;;;;;;;16.43;75.38;100087.59;4974612;28;20220;-61
2021/07/18 00:15:05;;;;;;;;;;;;;;;16.28;75.62;100095.59;4974085;28;19910;-61
2021/07/18 00:17:36;;;;;;;;;;;;;;;16.22;76.22;100086.59;4974517;28;19937;-61
2021/07/18 00:20:02;;;;;;;;;;;;;;;16.32;76.38;100085.88;4973944;28;19914;-62
2021/07/18 00:22:27;;;;;;;;;;;;;;;16.24;76.41;100095.28;4973155;28;19993;-61
2021/07/18 00:24:52;;;;;;;;;;;;;;;16.28;76.21;100087.47;4973070;28;19914;-61
2021/07/18 00:27:18;;;;;;;;;;;;;;;16.27;76.69;100088.53;4974003;28;19954;-61
2021/07/18 00:29:44;;;;;;;;;;;;;;;16.25;76.42;100082.56;4976775;28;19914;-61
2021/07/18 00:32:09;;;;;;;;;;;;;;;16.41;75.90;100078.91;4977682;28;19977;-61
2021/07/18 00:34:34;;;;;;;;;;;;;;;16.42;75.45;100082.44;4978219;28;19914;-61
2021/07/18 00:36:59;;;;;;;;;;;;;;;16.36;75.70;100097.81;4977863;28;19925;-61
2021/07/18 00:39:25;;;;;;;;;;;;;;;16.24;76.35;100094.47;4978171;28;20349;-61
2021/07/18 00:41:50;;;;;;;;;;;;;;;16.27;76.16;100091.25;4977654;28;20403;-61
2021/07/18 00:44:15;;;;;;;;;;;;;;;16.25;76.39;100096.09;4977922;28;19968;-61
2021/07/18 00:46:41;;;;;;;;;;;;;;;16.15;76.84;100092.25;4976244;28;19918;-61
2021/07/18 00:49:06;;;;;;;;;;;;;;;16.07;77.46;100087.28;4977696;28;20063;-61
2021/07/18 00:51:32;;;;;;;;;;;;;;;16.06;77.47;100088.38;4977598;28;19922;-61
2021/07/18 00:53:57;;;;;;;;;;;;;;;16.10;77.35;100091.38;4977938;28;19910;-61
2021/07/18 00:56:22;;;;;;;;;;;;;;;16.15;77.24;100086.03;4977294;28;20435;-61
2021/07/18 00:58:53;;;;;;;;;;;;;;;16.01;77.97;100087.53;4977679;28;19921;-61
2021/07/18 01:01:18;;;;;;;;;;;;;;;15.89;78.41;100083.09;4977300;28;20021;-62
2021/07/18 01:03:44;;;;;;;;;;;;;;;15.97;78.23;100084.50;4976543;28;19965;-61
2021/07/18 01:06:09;;;;;;;;;;;;;;;15.87;78.72;100079.81;4976103;28;19922;-61
2021/07/18 01:08:34;;;;;;;;;;;;;;;15.96;78.09;100089.09;4977617;28;20261;-61
2021/07/18 01:11:00;;;;;;;;;;;;;;;15.97;78.17;100079.09;4977213;28;19924;-62
2021/07/18 01:13:25;;;;;;;;;;;;;;;15.95;78.26;100086.69;4977512;28;19921;-61
2021/07/18 01:15:50;;;;;;;;;;;;;;;15.89;78.48;100088.50;4975798;28;19972;-61
2021/07/18 01:18:15;;;;;;;;;;;;;;;15.74;78.95;100080.25;4979799;28;19921;-61
2021/07/18 01:20:41;;;;;;;;;;;;;;;15.65;79.57;100088.00;4977086;28;19918;-62
2021/07/18 01:23:06;;;;;;;;;;;;;;;15.77;78.79;100087.03;4977319;28;20368;-61
2021/07/18 01:25:35;;;;;;;;;;;;;;;15.62;79.29;100087.66;4976794;28;19929;-62
2021/07/18 01:28:00;;;;;;;;;;;;;;;15.49;79.97;100083.47;4977120;28;19918;-62
2021/07/18 01:30:25;;;;;;;;;;;;;;;15.58;79.46;100079.25;4976716;28;19914;-62
2021/07/18 01:32:51;;;;;;;;;;;;;;;15.50;79.81;100088.63;4976982;28;19921;-61
2021/07/18 01:35:16;;;;;;;;;;;;;;;15.49;80.08;100083.47;4976771;28;19920;-61
2021/07/18 01:37:41;;;;;;;;;;;;;;;15.42;80.23;100083.66;4977059;28;19929;-61
2021/07/18 01:40:07;;;;;;;;;;;;;;;15.30;80.67;100074.88;4975934;28;19914;-61
2021/07/18 01:42:33;;;;;;;;;;;;;;;15.29;80.77;100074.06;4976835;28;20360;-61
2021/07/18 01:44:58;;;;;;;;;;;;;;;15.41;80.83;100073.94;4975623;28;20141;-61
2021/07/18 01:47:23;;;;;;;;;;;;;;;15.38;80.62;100071.75;4976342;28;19954;-62
2021/07/18 01:49:48;;;;;;;;;;;;;;;15.34;81.25;100069.81;4976797;28;19918;-61
2021/07/18 01:52:16;;;;;;;;;;;;;;;15.32;80.99;100075.44;4976429;28;19924;-61
2021/07/18 01:54:41;;;;;;;;;;;;;;;15.20;81.81;100069.38;4975653;28;19920;-61
2021/07/18 01:57:08;;;;;;;;;;;;;;;15.18;82.04;100072.34;4976284;28;20005;-61
2021/07/18 01:59:33;;;;;;;;;;;;;;;15.14;82.78;100067.69;4976512;28;19914;-61
2021/07/18 02:01:59;;;;;;;;;;;;;;;15.07;83.03;100062.47;4976173;28;20009;-61
2021/07/18 02:04:24;;;;;;;;;;;;;;;15.07;83.64;100075.97;4976564;28;19953;-61
2021/07/18 02:06:49;;;;;;;;;;;;;;;15.09;84.08;100063.03;4976144;28;20383;-62
2021/07/18 02:09:15;;;;;;;;;;;;;;;15.10;84.21;100067.38;4976507;28;19964;-62
2021/07/18 02:11:40;;;;;;;;;;;;;;;15.07;84.28;100070.56;4975981;28;20269;-61
2021/07/18 02:14:06;;;;;;;;;;;;;;;15.08;84.58;100067.63;4976380;28;19920;-62
2021/07/18 02:16:31;;;;;;;;;;;;;;;15.08;85.03;100070.34;4975798;28;19956;-62
2021/07/18 02:18:56;;;;;;;;;;;;;;;14.95;85.08;100076.13;4976299;28;19914;-62
2021/07/18 02:21:22;;;;;;;;;;;;;;;14.98;85.43;100081.00;4975771;28;19993;-61
2021/07/18 02:23:47;;;;;;;;;;;;;;;15.02;86.15;100078.59;4976073;28;19960;-61
2021/07/18 02:26:13;;;;;;;;;;;;;;;15.01;86.30;100077.81;4975742;28;19918;-62
2021/07/18 02:28:38;;;;;;;;;;;;;;;15.02;85.95;100073.22;4976183;28;19951;-62
2021/07/18 02:31:04;;;;;;;;;;;;;;;14.99;86.39;100074.53;4975713;28;20351;-62
2021/07/18 02:33:30;;;;;;;;;;;;;;;14.89;86.52;100080.59;4976681;28;19914;-62
2021/07/18 02:35:55;;;;;;;;;;;;;;;15.01;86.65;100072.41;4975967;28;19996;-62
2021/07/18 02:38:20;;;;;;;;;;;;;;;15.01;86.90;100074.28;4976420;28;20009;-62
2021/07/18 02:40:46;;;;;;;;;;;;;;;15.06;86.99;100077.88;4975984;28;19918;-62
2021/07/18 02:43:11;;;;;;;;;;;;;;;15.04;87.08;100076.47;4976239;28;19936;-62
2021/07/18 02:45:36;;;;;;;;;;;;;;;15.03;86.99;100080.25;4975444;28;20427;-61
2021/07/18 02:48:02;;;;;;;;;;;;;;;14.96;87.12;100075.03;4975732;28;19925;-61
2021/07/18 02:50:27;;;;;;;;;;;;;;;14.94;87.73;100082.56;4975375;28;19918;-61
2021/07/18 02:52:53;;;;;;;;;;;;;;;14.96;87.45;100072.34;4973816;28;19932;-61
2021/07/18 02:55:18;;;;;;;;;;;;;;;14.82;88.14;100066.47;4975346;28;19924;-61
2021/07/18 02:57:43;;;;;;;;;;;;;;;15.04;88.31;100071.09;4975685;28;20004;-62
2021/07/18 03:00:09;;;;;;;;;;;;;;;15.00;87.93;100080.75;4975150;28;20356;-62
2021/07/18 03:02:35;;;;;;;;;;;;;;;14.84;87.82;100072.44;4975680;28;19914;-62
2021/07/18 03:05:01;;;;;;;;;;;;;;;14.99;88.58;100073.72;4974406;28;19921;-61
2021/07/18 03:07:26;;;;;;;;;;;;;;;14.98;88.15;100067.50;4974971;28;19918;-61
2021/07/18 03:09:52;;;;;;;;;;;;;;;14.98;88.20;100066.69;4975499;28;19914;-61
2021/07/18 03:12:17;;;;;;;;;;;;;;;14.97;88.51;100065.88;4974909;28;20320;-61
2021/07/18 03:14:42;;;;;;;;;;;;;;;14.86;88.57;100064.94;4975162;28;19921;-62
2021/07/18 03:17:08;;;;;;;;;;;;;;;14.85;89.02;100055.22;4974819;28;19945;-61
2021/07/18 03:19:33;;;;;;;;;;;;;;;14.85;89.15;100062.47;4975318;28;19914;-61
2021/07/18 03:21:58;;;;;;;;;;;;;;;14.88;89.40;100060.09;4974752;28;19918;-61
2021/07/18 03:24:23;;;;;;;;;;;;;;;14.87;89.10;100061.16;4975123;28;20069;-61
2021/07/18 03:26:49;;;;;;;;;;;;;;;14.88;89.27;100057.41;4974682;28;19918;-61
2021/07/18 03:29:14;;;;;;;;;;;;;;;14.82;88.79;100062.97;4977357;28;19960;-61
2021/07/18 03:31:39;;;;;;;;;;;;;;;14.78;89.53;100062.66;4974671;28;19925;-61
2021/07/18 03:34:04;;;;;;;;;;;;;;;14.85;89.97;100060.59;4974970;28;20253;-61
2021/07/18 03:36:30;;;;;;;;;;;;;;;14.85;89.82;100055.22;4974557;28;19962;-61
2021/07/18 03:38:55;;;;;;;;;;;;;;;14.86;89.75;100054.13;4973630;28;19925;-61
2021/07/18 03:41:20;;;;;;;;;;;;;;;14.88;89.41;100057.41;4974519;28;19954;-61
2021/07/18 03:43:46;;;;;;;;;;;;;;;14.89;89.68;100052.81;4974763;28;20359;-61
2021/07/18 03:46:12;;;;;;;;;;;;;;;14.87;89.95;100058.44;4974343;28;19918;-62
2021/07/18 03:48:37;;;;;;;;;;;;;;;14.95;89.76;100059.09;4974596;28;19961;-61
2021/07/18 03:51:02;;;;;;;;;;;;;;;15.21;88.92;100055.63;4974528;28;19918;-62
2021/07/18 03:53:28;;;;;;;;;;;;;;;15.22;88.64;100051.84;4974682;28;19949;-62
2021/07/18 03:55:53;;;;;;;;;;;;;;;15.19;88.87;100055.06;4974378;28;19918;-61
2021/07/18 03:58:18;;;;;;;;;;;;;;;15.67;86.43;100058.78;4974680;28;20467;-62
2021/07/18 04:00:43;;;;;;;;;;;;;;;15.95;85.49;100060.44;4974441;28;19972;-61
2021/07/18 04:03:09;;;;;;;;;;;;;;;16.37;83.18;100058.84;4974813;28;19914;-61
2021/07/18 04:05:34;;;;;;;;;;;;;;;16.91;81.21;100061.34;4972931;28;19918;-62
2021/07/18 04:07:59;;;;;;;;;;;;;;;16.73;81.31;100064.50;4974602;28;19936;-61
2021/07/18 04:10:25;;;;;;;;;;;;;;;16.17;83.59;100057.66;4974183;28;19920;-62
2021/07/18 04:12:50;;;;;;;;;;;;;;;15.92;85.27;100069.06;4973246;28;19936;-62
2021/07/18 04:15:15;;;;;;;;;;;;;;;15.74;86.25;100075.66;4972963;28;19977;-62
2021/07/18 04:17:41;;;;;;;;;;;;;;;16.07;85.00;100073.78;4974742;28;19916;-62
2021/07/18 04:20:06;;;;;;;;;;;;;;;15.92;85.75;100076.34;4973028;28;20012;-62
2021/07/18 04:22:31;;;;;;;;;;;;;;;15.95;85.85;100075.88;4974289;28;20376;-62
2021/07/18 04:24:57;;;;;;;;;;;;;;;15.82;86.24;100081.66;4974238;28;19914;-61
2021/07/18 04:27:22;;;;;;;;;;;;;;;15.90;85.94;100078.50;4973934;28;19925;-61
2021/07/18 04:29:47;;;;;;;;;;;;;;;16.65;83.04;100078.50;4974185;28;20357;-62
2021/07/18 04:32:12;;;;;;;;;;;;;;;17.21;80.55;100076.09;4973768;28;19918;-62
2021/07/18 04:34:41;;;;;;;;;;;;;;;16.56;82.42;100070.06;4974452;28;20334;-62
2021/07/18 04:37:06;;;;;;;;;;;;;;;16.86;80.84;100072.16;4973875;28;20373;-62
2021/07/18 04:39:32;;;;;;;;;;;;;;;16.59;82.48;100074.97;4974403;28;19918;-61
2021/07/18 04:41:57;;;;;;;;;;;;;;;17.56;78.41;100075.38;4973918;28;20439;-61
2021/07/18 04:44:22;;;;;;;;;;;;;;;17.25;80.24;100078.03;4974161;28;19921;-62
2021/07/18 04:46:47;;;;;;;;;;;;;;;17.50;78.45;100072.91;4973925;28;19929;-62
2021/07/18 04:49:13;;;;;;;;;;;;;;;17.26;80.97;100078.84;4974086;28;20000;-62
2021/07/18 04:51:38;;;;;;;;;;;;;;;16.51;82.87;100084.38;4973811;28;19922;-61
2021/07/18 04:54:03;;;;;;;;;;;;;;;16.30;84.00;100088.00;4974085;28;20017;-62
2021/07/18 04:56:28;;;;;;;;;;;;;;;16.02;84.98;100087.25;4973767;28;20005;-61
2021/07/18 04:58:54;;;;;;;;;;;;;;;15.92;85.99;100097.97;4974034;28;20327;-62
2021/07/18 05:01:19;;;;;;;;;;;;;;;16.31;85.06;100090.47;4972445;28;19996;-61
2021/07/18 05:03:44;;;;;;;;;;;;;;;16.97;81.79;100086.56;4974195;28;19914;-61
2021/07/18 05:06:09;;;;;;;;;;;;;;;17.05;81.65;100094.19;4973618;28;19918;-61
2021/07/18 05:08:35;;;;;;;;;;;;;;;17.62;79.50;100081.63;4974113;28;19914;-61
2021/07/18 05:11:00;;;;;;;;;;;;;;;17.93;77.05;100087.94;4973712;28;20390;-61
2021/07/18 05:13:25;;;;;;;;;;;;;;;18.73;73.99;100096.28;4973952;28;19914;-61
2021/07/18 05:15:51;;;;;;;;;;;;;;;18.22;76.31;100098.25;4975913;28;19925;-61
2021/07/18 05:18:16;;;;;;;;;;;;;;;18.16;76.89;100099.34;4977616;28;19922;-61
2021/07/18 05:20:41;;;;;;;;;;;;;;;18.60;74.97;100096.88;4976933;28;19918;-61
2021/07/18 05:23:07;;;;;;;;;;;;;;;20.20;69.27;100097.75;4977396;28;20002;-61
2021/07/18 05:25:32;;;;;;;;;;;;;;;18.37;74.95;100097.44;4976760;28;19929;-61
2021/07/18 05:27:57;;;;;;;;;;;;;;;17.87;77.66;100106.13;4975916;28;19961;-61
2021/07/18 05:30:22;;;;;;;;;;;;;;;17.51;78.96;100096.25;4977066;28;20360;-61
2021/07/18 05:32:48;;;;;;;;;;;;;;;18.30;76.54;100105.88;4979745;28;20004;-61
2021/07/18 05:35:13;;;;;;;;;;;;;;;18.03;76.87;100106.13;4976724;28;19921;-61
2021/07/18 05:37:38;;;;;;;;;;;;;;;18.68;75.03;100101.72;4977184;28;19917;-61
2021/07/18 05:40:07;;;;;;;;;;;;;;;18.66;75.16;100103.91;4976728;28;19918;-61
2021/07/18 05:42:32;;;;;;;;;;;;;;;18.59;74.76;100095.22;4976832;28;19921;-61
2021/07/18 05:44:58;;;;;;;;;;;;;;;21.06;67.06;100104.22;4977181;28;19914;-61
2021/07/18 05:47:25;;;;;;;;;;;;;;;19.55;71.03;100101.44;4976328;28;19922;-61
2021/07/18 05:49:50;;;;;;;;;;;;;;;20.92;67.81;100100.59;4976949;28;19914;-61
2021/07/18 05:52:15;;;;;;;;;;;;;;;19.66;70.31;100104.09;4976481;28;19973;-61
2021/07/18 05:54:41;;;;;;;;;;;;;;;20.04;68.96;100103.31;4976801;28;20291;-60
2021/07/18 05:57:06;;;;;;;;;;;;;;;19.63;70.68;100102.75;4974981;28;19923;-61
2021/07/18 05:59:31;;;;;;;;;;;;;;;21.48;64.61;100113.53;4976827;28;19953;-61
2021/07/18 06:01:56;;;;;;;;;;;;;;;19.86;69.18;100114.03;4974833;28;19918;-60
2021/07/18 06:04:22;;;;;;;;;;;;;;;22.25;61.85;100114.34;4976558;28;19961;-61
2021/07/18 06:06:47;;;;;;;;;;;;;;;20.87;65.14;100117.00;4976096;28;19961;-60
2021/07/18 06:09:12;;;;;;;;;;;;;;;20.88;64.73;100119.44;4976559;28;19921;-61
2021/07/18 06:11:37;;;;;;;;;;;;;;;21.05;63.83;100116.25;4974742;28;19960;-61
2021/07/18 06:14:03;;;;;;;;;;;;;;;20.68;65.95;100122.38;4976602;28;19914;-61
2021/07/18 06:16:28;;;;;;;;;;;;;;;18.98;72.45;100124.50;4976012;28;19928;-61
2021/07/18 06:18:53;;;;;;;;;;;;;;;18.95;72.15;100127.78;4976382;28;20021;-61
2021/07/18 06:21:19;;;;;;;;;;;;;;;21.15;63.92;100126.22;4975830;28;19922;-60
2021/07/18 06:23:45;;;;;;;;;;;;;;;22.23;60.68;100122.03;4976188;28;20012;-61
2021/07/18 06:26:10;;;;;;;;;;;;;;;21.83;61.93;100127.78;4975535;28;20368;-61
2021/07/18 06:28:36;;;;;;;;;;;;;;;21.70;61.56;100129.34;4976007;28;19921;-61
2021/07/18 06:31:01;;;;;;;;;;;;;;;22.49;59.79;100136.88;4975582;28;19914;-61
2021/07/18 06:33:26;;;;;;;;;;;;;;;22.66;59.17;100132.75;4976398;28;19917;-61
2021/07/18 06:35:52;;;;;;;;;;;;;;;24.40;52.91;100145.47;4975516;28;20005;-61
2021/07/18 06:38:17;;;;;;;;;;;;;;;26.39;47.80;100144.44;4975968;28;19989;-62
2021/07/18 06:40:42;;;;;;;;;;;;;;;25.41;49.96;100146.66;4975341;28;19924;-62
2021/07/18 06:43:07;;;;;;;;;;;;;;;25.44;50.40;100142.44;4975558;28;19913;-61
2021/07/18 06:45:33;;;;;;;;;;;;;;;23.04;56.05;100136.97;4975200;28;19925;-61
2021/07/18 06:47:58;;;;;;;;;;;;;;;23.78;55.54;100154.34;4975464;28;19922;-62
2021/07/18 06:50:23;;;;;;;;;;;;;;;25.18;51.10;100146.72;4975138;28;20435;-61
2021/07/18 06:52:48;;;;;;;;;;;;;;;25.29;50.36;100151.94;4975606;28;19918;-61
2021/07/18 06:55:14;;;;;;;;;;;;;;;24.37;51.25;100149.66;4975141;28;20500;-62
2021/07/18 06:57:39;;;;;;;;;;;;;;;27.10;46.26;100136.44;4975404;28;19925;-62
2021/07/18 07:00:06;;;;;;;;;;;;;;;25.56;49.07;100151.69;4973645;28;19914;-61
2021/07/18 07:02:32;;;;;;;;;;;;;;;25.69;47.63;100146.38;4975555;28;19925;-62
2021/07/18 07:04:57;;;;;;;;;;;;;;;25.66;48.13;100149.72;4975439;28;20384;-62
2021/07/18 07:07:22;;;;;;;;;;;;;;;27.15;44.90;100154.69;4974823;28;19918;-62
2021/07/18 07:09:47;;;;;;;;;;;;;;;28.64;41.69;100148.91;4975338;28;20392;-62
2021/07/18 07:12:13;;;;;;;;;;;;;;;28.97;40.12;100155.16;4974765;28;19928;-62
2021/07/18 07:14:38;;;;;;;;;;;;;;;28.62;40.23;100156.72;4975345;28;20423;-62
2021/07/18 07:17:04;;;;;;;;;;;;;;;25.71;46.91;100153.16;4974720;28;19922;-62
2021/07/18 07:19:29;;;;;;;;;;;;;;;27.23;43.71;100155.81;4975215;28;20364;-61
2021/07/18 07:21:54;;;;;;;;;;;;;;;26.99;44.58;100151.72;4974700;28;20368;-61
2021/07/18 07:24:19;;;;;;;;;;;;;;;27.81;42.61;100156.91;4975404;28;20411;-62
2021/07/18 07:26:45;;;;;;;;;;;;;;;27.93;42.12;100147.94;4974764;28;20001;-62
2021/07/18 07:29:10;;;;;;;;;;;;;;;29.11;39.80;100154.06;4975054;28;19910;-62
2021/07/18 07:31:35;;;;;;;;;;;;;;;29.31;40.38;100153.13;4974620;28;19918;-62
2021/07/18 07:34:00;;;;;;;;;;;;;;;29.57;38.68;100149.19;4975004;28;19957;-62
2021/07/18 07:36:26;;;;;;;;;;;;;;;29.02;40.30;100149.41;4976898;28;20412;-62
2021/07/18 07:38:51;;;;;;;;;;;;;;;29.09;40.13;100150.84;4974407;28;19921;-62
2021/07/18 07:41:16;;;;;;;;;;;;;;;28.58;40.70;100149.13;4974407;28;20364;-62
2021/07/18 07:43:42;;;;;;;;;;;;;;;28.66;40.09;100146.63;4974528;28;19914;-62
2021/07/18 07:46:07;;;;;;;;;;;;;;;29.96;37.39;100152.34;4974393;28;19964;-62
2021/07/18 07:48:32;;;;;;;;;;;;;;;29.95;37.38;100153.47;4974586;28;19917;-62
2021/07/18 07:50:58;;;;;;;;;;;;;;;28.95;39.42;100157.44;4974252;28;20323;-62
2021/07/18 07:53:23;;;;;;;;;;;;;;;28.25;40.87;100156.56;4974515;28;19910;-62
2021/07/18 07:55:49;;;;;;;;;;;;;;;27.92;41.67;100149.88;4973828;28;19928;-62
2021/07/18 07:58:14;;;;;;;;;;;;;;;29.15;39.86;100143.91;4974469;28;19914;-62
2021/07/18 08:00:39;;;;;;;;;;;;;;;29.28;38.62;100159.34;4974144;28;19921;-62
2021/07/18 08:03:04;;;;;;;;;;;;;;;29.71;38.08;100155.16;4974611;28;19914;-61
2021/07/18 08:05:30;;;;;;;;;;;;;;;30.41;35.94;100142.97;4973925;28;20328;-61
2021/07/18 08:07:55;;;;;;;;;;;;;;;29.42;38.75;100145.16;4974436;28;19914;-62
2021/07/18 08:10:21;;;;;;;;;;;;;;;30.28;37.04;100144.97;4974076;28;19918;-62
2021/07/18 08:12:46;;;;;;;;;;;;;;;30.26;36.20;100139.78;4974375;28;19922;-62
2021/07/18 08:15:12;;;;;;;;;;;;;;;29.65;37.88;100138.03;4974118;28;19971;-62
2021/07/18 08:17:37;;;;;;;;;;;;;;;27.89;41.30;100134.03;4973173;28;19910;-61
2021/07/18 08:20:09;;;;;;;;;;;;;;;28.86;38.44;100142.97;4974079;28;19921;-61
2021/07/18 08:22:34;;;;;;;;;;;;;;;27.54;41.34;100144.47;4974297;28;19954;-62
2021/07/18 08:24:59;;;;;;;;;;;;;;;28.67;39.60;100139.94;4974190;28;19964;-62
2021/07/18 08:27:25;;;;;;;;;;;;;;;28.62;39.87;100135.47;4973808;28;19922;-62
2021/07/18 08:29:50;;;;;;;;;;;;;;;28.24;40.13;100130.16;4974254;28;19945;-62
2021/07/18 08:32:15;;;;;;;;;;;;;;;27.54;41.20;100133.47;4973901;28;19921;-61
2021/07/18 08:34:41;;;;;;;;;;;;;;;28.94;38.44;100125.50;4974123;28;19921;-62
2021/07/18 08:37:06;;;;;;;;;;;;;;;27.13;42.77;100123.94;4973691;28;19914;-61
2021/07/18 08:39:31;;;;;;;;;;;;;;;27.08;43.63;100124.97;4974009;28;19918;-61
2021/07/18 08:41:56;;;;;;;;;;;;;;;26.84;42.27;100124.75;4973631;28;19941;-61
2021/07/18 08:44:22;;;;;;;;;;;;;;;25.06;46.90;100127.31;4972746;28;19914;-61
2021/07/18 08:46:47;;;;;;;;;;;;;;;25.68;47.38;100122.78;4972223;28;19991;-61
2021/07/18 08:49:12;;;;;;;;;;;;;;;27.59;42.24;100119.50;4973882;28;20008;-61
2021/07/18 08:51:37;;;;;;;;;;;;;;;27.45;41.67;100119.75;4977493;28;20372;-62
2021/07/18 08:54:03;;;;;;;;;;;;;;;27.81;40.84;100120.28;4977692;28;19914;-61
2021/07/18 08:56:31;;;;;;;;;;;;;;;26.94;43.94;100116.13;4977499;28;19980;-61
2021/07/18 08:58:57;;;;;;;;;;;;;;;25.65;45.93;100106.94;4976408;28;20357;-61
2021/07/18 09:01:22;;;;;;;;;;;;;;;26.21;44.09;100114.22;4977261;28;19924;-61
2021/07/18 09:03:47;;;;;;;;;;;;;;;26.86;44.30;100112.28;4977555;28;20000;-61
2021/07/18 09:06:13;;;;;;;;;;;;;;;26.49;43.54;100100.09;4975560;28;19925;-61
2021/07/18 09:08:45;;;;;;;;;;;;;;;27.08;42.86;100110.38;4977313;28;19918;-61
2021/07/18 09:11:23;;;;;;;;;;;;;;;27.93;41.22;100112.13;4976902;28;19918;-62
2021/07/18 09:13:58;;;;;;;;;;;;;;;28.02;41.04;100104.59;4977500;28;19993;-61
2021/07/18 09:16:26;;;;;;;;;;;;;;;27.03;41.70;100114.16;4977057;28;19914;-61
2021/07/18 09:18:52;;;;;;;;;;;;;;;26.02;45.19;100108.28;4977310;28;19960;-61
2021/07/18 09:21:17;;;;;;;;;;;;;;;26.36;44.27;100104.66;4976600;28;19914;-61
2021/07/18 09:23:42;;;;;;;;;;;;;;;26.56;44.52;100105.94;4977047;28;19914;-61
2021/07/18 09:26:16;;;;;;;;;;;;;;;26.43;44.16;100102.22;4975559;28;20499;-61
2021/07/18 09:28:42;;;;;;;;;;;;;;;25.45;47.16;100100.16;4976976;28;19914;-61
2021/07/18 09:31:25;;;;;;;;;;;;;;;26.69;44.71;100098.59;4978948;28;19925;-61
2021/07/18 09:33:51;;;;;;;;;;;;;;;26.44;43.78;100103.81;4976973;28;19969;-61
2021/07/18 09:36:17;;;;;;;;;;;;;;;27.77;41.71;100103.66;4975388;28;20396;-61
2021/07/18 09:38:42;;;;;;;;;;;;;;;27.44;42.55;100100.81;4976951;28;19968;-61
2021/07/18 09:41:07;;;;;;;;;;;;;;;27.97;41.18;100102.03;4976588;28;19993;-61
2021/07/18 09:43:33;;;;;;;;;;;;;;;26.92;43.39;100092.84;4976750;28;19914;-61
2021/07/18 09:46:06;;;;;;;;;;;;;;;27.46;42.83;100098.56;4976336;28;19922;-60
2021/07/18 09:48:32;;;;;;;;;;;;;;;26.54;45.11;100090.91;4976531;28;19922;-61
2021/07/18 09:50:58;;;;;;;;;;;;;;;27.61;42.83;100094.38;4976145;28;19922;-61
2021/07/18 09:53:23;;;;;;;;;;;;;;;26.97;43.73;100087.16;4975340;28;19984;-61
2021/07/18 09:56:01;;;;;;;;;;;;;;;26.55;44.07;100081.50;4976082;28;19918;-61
2021/07/18 09:58:27;;;;;;;;;;;;;;;26.02;44.30;100070.63;4976611;28;19914;-61
2021/07/18 10:00:52;;;;;;;;;;;;;;;26.44;44.42;100075.53;4974290;28;19936;-61
2021/07/18 10:03:22;;;;;;;;;;;;;;;26.02;44.65;100075.31;4976404;28;19941;-61
2021/07/18 10:06:07;;;;;;;;;;;;;;;25.79;45.87;100074.66;4974759;28;19945;-61
2021/07/18 10:08:33;;;;;;;;;;;;;;;26.87;43.77;100072.63;4975941;28;19914;-61
2021/07/18 10:10:58;;;;;;;;;;;;;;;26.08;45.89;100067.69;4975756;28;20375;-61
2021/07/18 10:13:23;;;;;;;;;;;;;;;26.46;45.82;100068.59;4976157;28;19914;-61
2021/07/18 10:15:49;;;;;;;;;;;;;;;27.78;43.06;100069.44;4976000;28;19922;-61
2021/07/18 10:18:14;;;;;;;;;;;;;;;27.33;43.20;100056.34;4976412;28;19921;-60
2021/07/18 10:20:39;;;;;;;;;;;;;;;26.82;44.53;100064.56;4975927;28;20364;-61
2021/07/18 10:23:04;;;;;;;;;;;;;;;27.27;43.72;100066.75;4975100;28;19972;-61
2021/07/18 10:25:30;;;;;;;;;;;;;;;27.73;43.11;100069.66;4974184;28;20368;-61
2021/07/18 10:27:55;;;;;;;;;;;;;;;27.46;43.29;100066.31;4974744;28;19914;-61
2021/07/18 10:30:20;;;;;;;;;;;;;;;27.71;43.12;100064.50;4974586;28;19918;-61
2021/07/18 10:32:45;;;;;;;;;;;;;;;27.54;42.72;100061.88;4976221;28;19914;-61
2021/07/18 10:35:11;;;;;;;;;;;;;;;27.80;41.94;100074.63;4975690;28;19914;-61
2021/07/18 10:37:40;;;;;;;;;;;;;;;26.86;44.46;100056.47;4975888;28;19926;-61
2021/07/18 10:40:17;;;;;;;;;;;;;;;27.13;43.84;100052.41;4975461;28;19920;-61
2021/07/18 10:42:43;;;;;;;;;;;;;;;27.19;44.10;100056.63;4975575;28;19953;-61
2021/07/18 10:45:21;;;;;;;;;;;;;;;27.25;43.95;100052.53;4975259;28;20353;-61
2021/07/18 10:47:56;;;;;;;;;;;;;;;26.58;45.34;100058.84;4975540;28;19918;-61
2021/07/18 10:50:41;;;;;;;;;;;;;;;27.08;44.39;100050.69;4975092;28;19918;-61
2021/07/18 10:53:19;;;;;;;;;;;;;;;27.06;42.60;100052.16;4975650;28;20023;-61
2021/07/18 10:55:44;;;;;;;;;;;;;;;25.91;44.84;100046.56;4974969;28;20387;-60
2021/07/18 10:58:09;;;;;;;;;;;;;;;26.72;44.34;100053.94;4975314;28;19914;-61
2021/07/18 11:00:34;;;;;;;;;;;;;;;26.73;44.57;100044.56;4975022;28;19918;-61
2021/07/18 11:03:03;;;;;;;;;;;;;;;26.73;44.17;100044.56;4975221;28;20372;-61
2021/07/18 11:05:37;;;;;;;;;;;;;;;26.90;43.50;100038.97;4974820;28;19918;-61
2021/07/18 11:08:02;;;;;;;;;;;;;;;26.82;44.37;100047.28;4975293;28;19917;-61
2021/07/18 11:10:27;;;;;;;;;;;;;;;26.12;45.04;100041.19;4974888;28;19918;-60
2021/07/18 11:12:59;;;;;;;;;;;;;;;26.99;43.56;100040.88;4974547;28;19914;-61
2021/07/18 11:15:31;;;;;;;;;;;;;;;26.64;44.16;100041.06;4974801;28;19925;-60
2021/07/18 11:17:58;;;;;;;;;;;;;;;27.00;43.59;100042.47;4975212;28;19961;-61
2021/07/18 11:20:41;;;;;;;;;;;;;;;26.33;44.54;100036.59;4973637;28;19918;-61
2021/07/18 11:23:08;;;;;;;;;;;;;;;25.63;46.03;100035.09;4977655;28;19969;-61
2021/07/18 11:25:45;;;;;;;;;;;;;;;26.16;45.71;100036.66;4974650;28;19922;-60
2021/07/18 11:28:48;;;;;;;;;;;;;;;26.92;44.41;100024.09;4975023;28;19921;-61
2021/07/18 11:31:20;;;;;;;;;;;;;;;26.49;44.12;100030.59;4974789;28;19914;-61
2021/07/18 11:33:52;;;;;;;;;;;;;;;26.36;44.96;100019.47;4974985;28;19969;-61
2021/07/18 11:36:17;;;;;;;;;;;;;;;26.43;45.64;100027.19;4974687;28;20469;-61
2021/07/18 11:38:43;;;;;;;;;;;;;;;26.56;44.29;100023.47;4973595;28;19957;-61
2021/07/18 11:41:21;;;;;;;;;;;;;;;26.61;43.22;100022.44;4974392;28;19941;-61
2021/07/18 11:43:47;;;;;;;;;;;;;;;26.73;44.57;100019.81;4974590;28;20012;-61
2021/07/18 11:46:12;;;;;;;;;;;;;;;27.29;43.27;100016.91;4974501;28;20020;-61
2021/07/18 11:48:38;;;;;;;;;;;;;;;27.27;43.69;100013.69;4974623;28;19917;-61
2021/07/18 11:51:35;;;;;;;;;;;;;;;26.73;45.50;100010.75;4974340;28;19942;-61
2021/07/18 11:54:01;;;;;;;;;;;;;;;27.12;43.25;99998.53;4942054;28;19921;-61
2021/07/18 11:56:31;;;;;;;;;;;;;;;26.33;44.85;100003.63;4973286;28;19918;-61
2021/07/18 11:58:59;;;;;;;;;;;;;;;26.23;45.52;100001.25;4974813;28;19932;-61
2021/07/18 12:01:25;;;;;;;;;;;;;;;26.74;43.76;99993.94;4972782;28;19918;-61
2021/07/18 12:03:50;;;;;;;;;;;;;;;26.12;45.33;99997.25;4973337;28;19917;-61
2021/07/18 12:06:18;;;;;;;;;;;;;;;26.49;44.50;99983.88;4974131;28;19918;-61
2021/07/18 12:08:43;;;;;;;;;;;;;;;26.66;44.76;99992.06;4974689;28;19918;-61
2021/07/18 12:11:11;;;;;;;;;;;;;;;26.82;44.02;99989.53;4974181;28;20347;-61
2021/07/18 12:13:37;;;;;;;;;;;;;;;26.86;44.28;99993.22;4974607;28;19914;-61
2021/07/18 12:16:04;;;;;;;;;;;;;;;26.73;45.10;99995.06;4974347;28;19924;-61
2021/07/18 12:18:29;;;;;;;;;;;;;;;27.14;43.25;99982.50;4973176;28;19933;-61
2021/07/18 12:21:13;;;;;;;;;;;;;;;26.93;44.11;99981.69;4974149;28;20368;-60
2021/07/18 12:23:38;;;;;;;;;;;;;;;26.76;44.49;99980.66;4975155;28;20273;-61
2021/07/18 12:26:03;;;;;;;;;;;;;;;26.80;43.32;99978.84;4977971;28;19926;-61
2021/07/18 12:28:29;;;;;;;;;;;;;;;27.06;43.78;99986.16;4977057;28;20257;-61
2021/07/18 12:30:54;;;;;;;;;;;;;;;26.85;44.13;99981.41;4976743;28;19918;-62
2021/07/18 12:33:21;;;;;;;;;;;;;;;26.98;44.32;99976.78;4978613;28;19914;-61